Time;durP1;ratioP1;P1;durP2;ratioP2;P2;SDS_P1;SDS_P2;PMS_P1;PMS_P2;Temp;Humidity;BMP_temperature;BMP_pressure;BME280_temperature;BME280_humidity;BME280_pressure;Samples;Min_cycle;Max_cycle;Signal;HPM_P1;HPM_P2
2022/04/17 00:00:07;;;;;;;7.20;6.50;;;;;;;;;;5101028;28;20480;-69
2022/04/17 00:02:32;;;;;;;9.35;7.28;;;;;;;;;;5092306;28;20020;-69
2022/04/17 00:04:57;;;;;;;7.22;6.53;;;;;;;;;;5095667;28;20035;-68
2022/04/17 00:07:23;;;;;;;9.98;6.53;;;;;;;;;;5103147;28;20028;-71
2022/04/17 00:09:48;;;;;;;7.55;6.82;;;;;;;;;;5103047;28;20379;-69
2022/04/17 00:12:13;;;;;;;7.88;6.97;;;;;;;;;;5091887;28;20142;-69
2022/04/17 00:14:39;;;;;;;10.55;8.05;;;;;;;;;;5093381;28;20985;-70
2022/04/17 00:17:05;;;;;;;8.90;8.00;;;;;;;;;;5102742;28;20118;-72
2022/04/17 00:19:30;;;;;;;12.68;8.70;;;;;;;;;;5102671;28;20035;-70
2022/04/17 00:21:55;;;;;;;9.25;8.35;;;;;;;;;;5103209;28;20016;-69
2022/04/17 00:24:21;;;;;;;8.82;7.93;;;;;;;;;;5102216;28;20438;-68
2022/04/17 00:26:46;;;;;;;9.48;8.48;;;;;;;;;;5102260;28;20015;-69
2022/04/17 00:29:11;;;;;;;10.23;8.85;;;;;;;;;;5102131;28;20031;-70
2022/04/17 00:31:36;;;;;;;11.07;9.77;;;;;;;;;;5092441;28;20402;-69
2022/04/17 00:34:02;;;;;;;11.32;9.60;;;;;;;;;;5090880;28;20115;-70
2022/04/17 00:36:27;;;;;;;9.82;8.73;;;;;;;;;;5101841;28;20035;-68
2022/04/17 00:38:53;;;;;;;9.88;8.88;;;;;;;;;;5101819;28;20028;-70
2022/04/17 00:41:18;;;;;;;9.23;8.35;;;;;;;;;;5101247;28;20055;-70
2022/04/17 00:43:48;;;;;;;11.63;9.43;;;;;;;;;;5102072;28;20130;-69
2022/04/17 00:46:13;;;;;;;9.18;8.30;;;;;;;;;;5100910;28;20022;-69
2022/04/17 00:48:39;;;;;;;9.60;8.68;;;;;;;;;;5094001;28;20401;-68
2022/04/17 00:51:05;;;;;;;10.80;9.80;;;;;;;;;;5098293;28;20110;-71
2022/04/17 00:53:30;;;;;;;9.00;8.07;;;;;;;;;;5101717;28;20055;-67
2022/04/17 00:55:56;;;;;;;10.52;9.52;;;;;;;;;;5101536;28;20019;-67
2022/04/17 00:58:22;;;;;;;10.35;9.35;;;;;;;;;;5102688;28;20024;-71
2022/04/17 01:00:47;;;;;;;9.43;8.55;;;;;;;;;;5102317;28;20472;-70
2022/04/17 01:03:13;;;;;;;11.60;9.75;;;;;;;;;;5089933;28;20023;-74
2022/04/17 01:05:42;;;;;;;9.70;8.80;;;;;;;;;;5095465;28;20110;-69
2022/04/17 01:08:08;;;;;;;11.45;9.55;;;;;;;;;;5102337;28;20101;-68
2022/04/17 01:10:34;;;;;;;9.25;8.35;;;;;;;;;;5101889;28;20027;-70
2022/04/17 01:13:01;;;;;;;9.23;8.32;;;;;;;;;;5102288;28;20019;-69
2022/04/17 01:15:27;;;;;;;9.48;8.57;;;;;;;;;;5088800;28;20114;-68
2022/04/17 01:17:53;;;;;;;9.82;8.93;;;;;;;;;;5090782;28;20346;-70
2022/04/17 01:20:19;;;;;;;9.35;7.65;;;;;;;;;;5093858;28;20035;-71
2022/04/17 01:22:46;;;;;;;8.52;7.63;;;;;;;;;;5100950;28;20452;-69
2022/04/17 01:27:56;;;;;;;8.25;7.45;;;;;;;;;;5101117;28;20043;-70
2022/04/17 01:30:21;;;;;;;8.82;7.95;;;;;;;;;;5100874;28;20028;-71
2022/04/17 01:32:46;;;;;;;8.85;7.90;;;;;;;;;;5096230;28;20094;-73
2022/04/17 01:35:12;;;;;;;11.50;7.85;;;;;;;;;;5087931;28;20038;-69
2022/04/17 01:37:37;;;;;;;9.38;8.45;;;;;;;;;;5098271;28;20028;-68
2022/04/17 01:40:02;;;;;;;11.48;9.85;;;;;;;;;;5100298;28;20023;-68
2022/04/17 01:42:28;;;;;;;10.35;9.35;;;;;;;;;;5100385;28;20050;-67
2022/04/17 01:44:53;;;;;;;10.75;9.63;;;;;;;;;;5098751;28;20027;-69
2022/04/17 01:47:18;;;;;;;11.52;9.52;;;;;;;;;;5100347;28;20114;-67
2022/04/17 01:49:44;;;;;;;11.20;10.18;;;;;;;;;;5100133;28;20970;-68
2022/04/17 01:52:09;;;;;;;13.20;12.00;;;;;;;;;;5099478;28;20073;-68
2022/04/17 01:54:35;;;;;;;12.75;11.45;;;;;;;;;;5100666;28;20028;-72
2022/04/17 01:57:00;;;;;;;14.10;12.60;;;;;;;;;;5093187;28;20030;-68
2022/04/17 01:59:26;;;;;;;13.75;12.40;;;;;;;;;;5098268;28;20051;-70
2022/04/17 02:01:52;;;;;;;15.70;12.20;;;;;;;;;;5101465;28;20059;-67
2022/04/17 02:04:18;;;;;;;14.77;12.68;;;;;;;;;;5090032;28;20067;-67
2022/04/17 02:06:44;;;;;;;14.35;12.85;;;;;;;;;;5098808;28;20109;-69
2022/04/17 02:09:11;;;;;;;13.77;12.38;;;;;;;;;;5100654;28;20032;-74
2022/04/17 02:11:38;;;;;;;14.60;13.10;;;;;;;;;;5099922;28;20027;-70
2022/04/17 02:14:04;;;;;;;18.42;13.68;;;;;;;;;;5099753;28;20054;-69
2022/04/17 02:16:30;;;;;;;16.58;14.10;;;;;;;;;;5092797;28;20098;-71
2022/04/17 02:18:55;;;;;;;15.93;14.30;;;;;;;;;;5090505;28;20038;-70
2022/04/17 02:21:21;;;;;;;15.07;13.40;;;;;;;;;;5088982;28;21423;-74
2022/04/17 02:23:47;;;;;;;15.23;13.63;;;;;;;;;;5094574;28;20509;-74
2022/04/17 02:26:13;;;;;;;14.95;13.23;;;;;;;;;;5101167;28;20042;-73
2022/04/17 02:28:40;;;;;;;15.52;13.93;;;;;;;;;;5100977;28;20027;-72
2022/04/17 02:31:06;;;;;;;16.83;14.45;;;;;;;;;;5100938;28;20123;-75
2022/04/17 02:33:31;;;;;;;16.90;15.20;;;;;;;;;;5100173;28;20027;-69
2022/04/17 02:35:56;;;;;;;16.38;14.57;;;;;;;;;;5099965;28;20035;-72
2022/04/17 02:38:22;;;;;;;16.65;14.75;;;;;;;;;;5100194;28;20100;-69
2022/04/17 02:40:47;;;;;;;16.17;14.32;;;;;;;;;;5099958;28;20023;-69
2022/04/17 02:43:12;;;;;;;17.17;15.38;;;;;;;;;;5100106;28;20035;-69
2022/04/17 02:45:38;;;;;;;18.08;15.00;;;;;;;;;;5099975;28;20022;-69
2022/04/17 02:48:04;;;;;;;16.05;14.43;;;;;;;;;;5100224;28;20031;-69
2022/04/17 02:50:29;;;;;;;17.13;14.60;;;;;;;;;;5101024;28;20461;-69
2022/04/17 02:52:57;;;;;;;22.63;15.50;;;;;;;;;;5100901;28;20024;-75
2022/04/17 02:55:23;;;;;;;14.18;12.75;;;;;;;;;;5099742;28;20038;-70
2022/04/17 02:57:48;;;;;;;14.98;13.43;;;;;;;;;;5099816;28;20020;-70
2022/04/17 03:00:14;;;;;;;15.80;11.98;;;;;;;;;;5100514;28;20415;-68
2022/04/17 03:05:36;;;;;;;16.95;11.93;;;;;;;;;;5101099;28;20457;-68
2022/04/17 03:08:15;;;;;;;10.85;9.80;;;;;;;;;;5100022;28;20041;-72
2022/04/17 03:10:44;;;;;;;14.65;10.63;;;;;;;;;;5099052;28;20109;-69
2022/04/17 03:13:09;;;;;;;13.02;10.93;;;;;;;;;;5099717;28;20054;-70
2022/04/17 03:15:37;;;;;;;14.82;11.50;;;;;;;;;;5092207;28;20438;-70
2022/04/17 03:18:03;;;;;;;12.20;10.32;;;;;;;;;;5090914;28;20027;-72
2022/04/17 03:20:28;;;;;;;11.82;9.98;;;;;;;;;;5099268;28;20345;-74
2022/04/17 03:22:54;;;;;;;12.38;10.15;;;;;;;;;;5099611;28;20028;-72
2022/04/17 03:25:19;;;;;;;13.65;9.93;;;;;;;;;;5081459;28;20027;-69
2022/04/17 03:27:46;;;;;;;11.38;10.20;;;;;;;;;;5100332;28;20472;-70
2022/04/17 03:30:13;;;;;;;12.77;10.30;;;;;;;;;;5099668;28;20020;-69
2022/04/17 03:32:38;;;;;;;14.85;10.45;;;;;;;;;;5103273;28;20509;-70
2022/04/17 03:35:04;;;;;;;15.13;10.65;;;;;;;;;;5104590;28;20059;-74
2022/04/17 03:37:29;;;;;;;15.20;11.45;;;;;;;;;;5103845;28;20035;-69
2022/04/17 03:39:54;;;;;;;14.23;10.38;;;;;;;;;;5103981;28;20191;-70
2022/04/17 03:42:21;;;;;;;13.88;10.52;;;;;;;;;;5102706;28;20020;-71
2022/04/17 03:44:47;;;;;;;14.10;11.02;;;;;;;;;;5101963;28;20335;-70
2022/04/17 03:47:12;;;;;;;17.50;12.25;;;;;;;;;;5102456;28;20172;-71
2022/04/17 03:49:38;;;;;;;20.67;11.60;;;;;;;;;;5103143;28;20327;-75
2022/04/17 03:52:04;;;;;;;18.02;11.70;;;;;;;;;;5102869;28;20085;-74
2022/04/17 03:54:30;;;;;;;18.42;12.27;;;;;;;;;;5098021;28;20759;-69
2022/04/17 03:56:55;;;;;;;20.05;13.45;;;;;;;;;;5102092;28;20028;-71
2022/04/17 03:59:21;;;;;;;20.05;13.15;;;;;;;;;;5103059;28;20450;-69
2022/04/17 04:01:46;;;;;;;18.48;11.80;;;;;;;;;;5100358;28;20118;-70
2022/04/17 04:04:12;;;;;;;18.40;13.50;;;;;;;;;;5102814;28;20057;-74
2022/04/17 04:06:37;;;;;;;18.70;12.40;;;;;;;;;;5103350;28;20030;-68
2022/04/17 04:09:02;;;;;;;15.65;11.48;;;;;;;;;;5101589;28;20051;-71
2022/04/17 04:11:28;;;;;;;17.02;11.10;;;;;;;;;;5092868;28;20019;-71
2022/04/17 04:13:54;;;;;;;17.73;11.52;;;;;;;;;;5069599;28;20035;-68
2022/04/17 04:16:19;;;;;;;13.98;11.70;;;;;;;;;;5088580;28;20047;-75
2022/04/17 04:18:45;;;;;;;16.55;13.55;;;;;;;;;;5088373;28;20059;-70
2022/04/17 04:21:10;;;;;;;15.88;12.18;;;;;;;;;;5088330;28;20111;-69
2022/04/17 04:23:36;;;;;;;18.10;13.75;;;;;;;;;;5092488;28;20126;-71
2022/04/17 04:26:02;;;;;;;16.17;14.43;;;;;;;;;;5102610;28;20066;-74
2022/04/17 04:28:33;;;;;;;17.33;15.63;;;;;;;;;;5103307;28;20430;-69
2022/04/17 04:31:01;;;;;;;20.42;12.73;;;;;;;;;;5102250;28;20542;-72
2022/04/17 04:33:26;;;;;;;13.55;11.23;;;;;;;;;;5099497;28;20023;-69
2022/04/17 04:35:52;;;;;;;14.52;11.00;;;;;;;;;;5102592;28;20406;-69
2022/04/17 04:38:17;;;;;;;14.80;11.52;;;;;;;;;;5101280;28;20031;-69
2022/04/17 04:40:42;;;;;;;14.25;11.05;;;;;;;;;;5099876;28;20391;-73
2022/04/17 04:43:08;;;;;;;15.10;10.40;;;;;;;;;;5091377;28;20035;-69
2022/04/17 04:49:29;;;;;;;16.45;11.45;;;;;;;;;;5101245;28;20132;-69
2022/04/17 04:51:02;;;;;;;15.25;11.18;;;;;;;;;;5101458;28;20032;-69
2022/04/17 04:53:28;;;;;;;12.15;10.52;;;;;;;;;;5099584;28;20038;-72
2022/04/17 04:55:54;;;;;;;13.50;9.68;;;;;;;;;;5099200;28;20028;-69
2022/04/17 04:58:20;;;;;;;12.77;10.25;;;;;;;;;;5101027;28;20023;-70
2022/04/17 05:00:45;;;;;;;12.05;9.95;;;;;;;;;;5093464;28;20473;-70
2022/04/17 05:03:11;;;;;;;13.13;10.30;;;;;;;;;;5087712;28;20027;-70
2022/04/17 05:05:36;;;;;;;14.50;11.25;;;;;;;;;;5070526;28;20112;-72
2022/04/17 05:08:01;;;;;;;13.27;11.52;;;;;;;;;;5091107;28;20118;-68
2022/04/17 05:10:27;;;;;;;15.05;11.57;;;;;;;;;;5088561;28;20027;-70
2022/04/17 05:12:52;;;;;;;13.32;11.30;;;;;;;;;;5073894;28;20023;-68
2022/04/17 05:15:17;;;;;;;13.55;11.55;;;;;;;;;;5100404;28;20840;-71
2022/04/17 05:17:43;;;;;;;16.02;11.40;;;;;;;;;;5083015;28;20426;-70
2022/04/17 05:20:09;;;;;;;15.48;12.05;;;;;;;;;;5101044;28;20024;-69
2022/04/17 05:22:34;;;;;;;14.90;12.45;;;;;;;;;;5098638;28;20112;-67
2022/04/17 05:25:00;;;;;;;16.35;13.52;;;;;;;;;;5087241;28;20074;-68
2022/04/17 05:27:27;;;;;;;17.38;12.10;;;;;;;;;;5088311;28;20118;-70
2022/04/17 05:29:52;;;;;;;12.57;10.50;;;;;;;;;;5089041;28;20392;-71
2022/04/17 05:32:17;;;;;;;11.40;9.63;;;;;;;;;;5088468;28;20031;-70
2022/04/17 05:34:43;;;;;;;11.88;9.77;;;;;;;;;;5088472;28;20035;-68
2022/04/17 05:37:08;;;;;;;12.63;11.07;;;;;;;;;;5087652;28;20023;-69
2022/04/17 05:39:34;;;;;;;12.50;10.88;;;;;;;;;;5090439;28;20032;-69
2022/04/17 05:41:59;;;;;;;14.35;10.93;;;;;;;;;;5091509;28;20023;-66
2022/04/17 05:44:25;;;;;;;12.50;10.82;;;;;;;;;;5098768;28;20027;-68
2022/04/17 05:46:50;;;;;;;12.68;10.02;;;;;;;;;;5100644;28;20028;-67
2022/04/17 05:49:15;;;;;;;11.85;10.07;;;;;;;;;;5092542;28;20449;-69
2022/04/17 05:51:41;;;;;;;10.40;9.30;;;;;;;;;;5086622;28;20386;-68
2022/04/17 05:54:07;;;;;;;11.23;8.85;;;;;;;;;;5086057;28;20063;-67
2022/04/17 05:56:33;;;;;;;12.77;11.15;;;;;;;;;;5089115;28;20527;-69
2022/04/17 05:58:58;;;;;;;14.32;11.63;;;;;;;;;;5098777;28;20039;-68
2022/04/17 06:01:24;;;;;;;18.65;13.70;;;;;;;;;;5099907;28;20020;-70
2022/04/17 06:03:50;;;;;;;23.98;14.63;;;;;;;;;;5099362;28;20039;-70
2022/04/17 06:06:16;;;;;;;46.17;20.45;;;;;;;;;;5100634;28;20080;-73
2022/04/17 06:08:41;;;;;;;78.72;33.55;;;;;;;;;;5098313;28;20418;-71
2022/04/17 06:11:07;;;;;;;50.50;23.17;;;;;;;;;;5100135;28;20035;-70
2022/04/17 06:13:32;;;;;;;28.63;16.60;;;;;;;;;;5099274;28;20732;-70
2022/04/17 06:15:57;;;;;;;22.83;15.20;;;;;;;;;;5090607;28;20027;-68
2022/04/17 06:18:23;;;;;;;16.63;13.48;;;;;;;;;;5093393;28;20027;-66
2022/04/17 06:20:48;;;;;;;14.98;12.00;;;;;;;;;;5098028;28;20031;-67
2022/04/17 06:23:13;;;;;;;14.57;11.60;;;;;;;;;;5086311;28;20051;-66
2022/04/17 06:25:39;;;;;;;22.85;12.82;;;;;;;;;;5099884;28;20051;-67
2022/04/17 06:28:04;;;;;;;41.72;32.20;;;;;;;;;;5099616;28;20032;-68
2022/04/17 06:30:30;;;;;;;19.70;14.77;;;;;;;;;;5100312;28;20020;-69
2022/04/17 06:32:55;;;;;;;19.40;12.43;;;;;;;;;;5099104;28;20044;-68
2022/04/17 06:35:20;;;;;;;15.98;12.05;;;;;;;;;;5085907;28;20029;-70
2022/04/17 06:37:53;;;;;;;55.05;35.25;;;;;;;;;;5084710;28;20028;-69
2022/04/17 06:40:19;;;;;;;28.10;18.60;;;;;;;;;;5097761;28;20212;-68
2022/04/17 06:42:45;;;;;;;56.97;41.90;;;;;;;;;;5089600;28;20070;-70
2022/04/17 06:45:11;;;;;;;26.55;20.42;;;;;;;;;;5084562;28;20047;-71
2022/04/17 06:47:36;;;;;;;22.35;15.48;;;;;;;;;;5093799;28;20066;-70
2022/04/17 06:50:02;;;;;;;36.40;25.08;;;;;;;;;;5082064;28;20066;-72
2022/04/17 06:52:27;;;;;;;33.10;23.95;;;;;;;;;;5099441;28;20015;-72
2022/04/17 06:54:52;;;;;;;39.78;27.13;;;;;;;;;;5098092;28;20442;-72
2022/04/17 06:57:18;;;;;;;23.55;18.85;;;;;;;;;;5097338;28;20763;-67
2022/04/17 06:59:43;;;;;;;12.98;10.10;;;;;;;;;;5097709;28;20044;-67
2022/04/17 07:02:08;;;;;;;15.57;12.90;;;;;;;;;;5099171;28;20034;-68
2022/04/17 07:04:34;;;;;;;22.17;15.43;;;;;;;;;;5099045;28;20032;-71
2022/04/17 07:06:59;;;;;;;26.67;18.83;;;;;;;;;;5105847;28;20387;-68
2022/04/17 07:09:24;;;;;;;17.98;11.98;;;;;;;;;;5106682;28;20096;-72
2022/04/17 07:11:49;;;;;;;16.38;13.93;;;;;;;;;;5106071;28;20450;-70
2022/04/17 07:14:15;;;;;;;12.27;10.43;;;;;;;;;;5106106;28;20396;-68
2022/04/17 07:16:46;;;;;;;12.75;9.70;;;;;;;;;;5105644;28;20031;-68
2022/04/17 07:19:13;;;;;;;13.75;10.23;;;;;;;;;;5106360;28;20110;-67
2022/04/17 07:21:39;;;;;;;14.38;11.70;;;;;;;;;;5105597;28;20434;-72
2022/04/17 07:24:04;;;;;;;11.82;10.35;;;;;;;;;;5105765;28;20110;-70
2022/04/17 07:26:29;;;;;;;11.25;9.20;;;;;;;;;;5105253;28;20034;-69
2022/04/17 07:28:55;;;;;;;14.52;10.05;;;;;;;;;;5106419;28;20023;-69
2022/04/17 07:31:20;;;;;;;17.88;11.57;;;;;;;;;;5106484;28;20034;-68
2022/04/17 07:33:45;;;;;;;21.30;15.75;;;;;;;;;;5106939;28;21116;-72
2022/04/17 07:36:11;;;;;;;19.38;14.65;;;;;;;;;;5106517;28;20045;-70
2022/04/17 07:38:36;;;;;;;21.52;14.57;;;;;;;;;;5107064;28;20031;-75
2022/04/17 07:41:02;;;;;;;16.15;12.43;;;;;;;;;;5107232;28;20433;-72
2022/04/17 07:43:28;;;;;;;21.80;15.88;;;;;;;;;;5107139;28;20059;-69
2022/04/17 07:45:53;;;;;;;54.38;30.15;;;;;;;;;;5110588;28;20460;-70
2022/04/17 07:48:19;;;;;;;23.77;16.13;;;;;;;;;;5109592;28;20144;-70
2022/04/17 07:50:44;;;;;;;17.00;13.07;;;;;;;;;;5109751;28;20384;-69
2022/04/17 07:53:09;;;;;;;30.30;18.33;;;;;;;;;;5108070;28;20067;-74
2022/04/17 07:55:35;;;;;;;29.25;17.75;;;;;;;;;;5106824;28;20024;-69
2022/04/17 08:00:31;;;;;;;27.50;17.27;;;;;;;;;;5106648;28;20047;-69
2022/04/17 08:03:07;;;;;;;23.08;15.07;;;;;;;;;;5086604;28;20031;-69
2022/04/17 08:05:39;;;;;;;18.63;14.68;;;;;;;;;;5107100;28;20015;-75
2022/04/17 08:08:06;;;;;;;16.55;11.35;;;;;;;;;;5106646;28;20034;-70
2022/04/17 08:10:31;;;;;;;14.10;11.07;;;;;;;;;;5107688;28;20023;-67
2022/04/17 08:12:57;;;;;;;20.13;14.77;;;;;;;;;;5106842;28;20346;-69
2022/04/17 08:15:22;;;;;;;98.70;51.67;;;;;;;;;;5106879;28;20031;-74
2022/04/17 08:17:47;;;;;;;29.17;18.10;;;;;;;;;;5103509;28;20367;-74
2022/04/17 08:20:12;;;;;;;21.88;18.55;;;;;;;;;;5101861;28;20469;-73
2022/04/17 08:22:38;;;;;;;20.95;18.42;;;;;;;;;;5103807;28;20073;-70
2022/04/17 08:25:04;;;;;;;17.25;12.90;;;;;;;;;;5103179;28;20095;-75
2022/04/17 08:27:29;;;;;;;18.50;13.23;;;;;;;;;;5102306;28;20081;-70
2022/04/17 08:29:55;;;;;;;18.75;13.85;;;;;;;;;;5102921;28;20373;-71
2022/04/17 08:32:20;;;;;;;24.35;18.05;;;;;;;;;;5102598;28;20388;-70
2022/04/17 08:34:45;;;;;;;42.85;29.00;;;;;;;;;;5103082;28;20098;-70
2022/04/17 08:37:10;;;;;;;39.42;24.65;;;;;;;;;;5102837;28;20942;-72
2022/04/17 08:39:36;;;;;;;45.40;28.65;;;;;;;;;;5102511;28;20019;-68
2022/04/17 08:42:02;;;;;;;32.47;20.98;;;;;;;;;;5102997;28;20118;-75
2022/04/17 08:44:27;;;;;;;27.83;17.85;;;;;;;;;;5102851;28;20110;-77
2022/04/17 08:46:52;;;;;;;35.85;22.63;;;;;;;;;;5102859;28;20126;-70
2022/04/17 08:49:19;;;;;;;30.27;19.35;;;;;;;;;;5101833;28;20027;-69
2022/04/17 08:51:48;;;;;;;29.60;18.80;;;;;;;;;;5101838;28;20069;-68
2022/04/17 08:54:14;;;;;;;29.95;18.45;;;;;;;;;;5102145;28;21376;-71
2022/04/17 08:56:40;;;;;;;36.33;20.90;;;;;;;;;;5102090;28;20023;-68
2022/04/17 08:59:05;;;;;;;33.38;19.85;;;;;;;;;;5101952;28;20061;-68
2022/04/17 09:01:32;;;;;;;22.77;15.40;;;;;;;;;;5102707;28;20300;-71
2022/04/17 09:03:57;;;;;;;24.17;14.98;;;;;;;;;;5102122;28;20027;-73
2022/04/17 09:06:22;;;;;;;22.02;13.00;;;;;;;;;;5101860;28;20024;-70
2022/04/17 09:08:58;;;;;;;22.63;13.90;;;;;;;;;;5101730;28;20015;-69
2022/04/17 09:11:30;;;;;;;17.13;10.57;;;;;;;;;;5102137;28;20030;-71
2022/04/17 09:13:56;;;;;;;12.30;9.07;;;;;;;;;;5101356;28;20028;-70
2022/04/17 09:16:26;;;;;;;15.27;9.63;;;;;;;;;;5102648;28;20076;-70
2022/04/17 09:18:51;;;;;;;;;;;;;;;;;;5102298;28;20023;-70
2022/04/17 09:21:30;;;;;;;20.93;12.10;;;;;;;;;;5101617;28;19911;-69
2022/04/17 09:24:11;;;;;;;19.35;13.20;;;;;;;;;;5101837;28;20054;-69
2022/04/17 09:26:37;;;;;;;14.98;9.38;;;;;;;;;;5101914;28;20031;-72
2022/04/17 09:29:15;;;;;;;20.30;13.05;;;;;;;;;;5082372;28;20027;-71
2022/04/17 09:31:41;;;;;;;21.05;14.13;;;;;;;;;;5101002;28;20027;-72
2022/04/17 09:34:09;;;;;;;18.40;12.35;;;;;;;;;;5101584;28;20168;-76
2022/04/17 09:36:37;;;;;;;18.73;10.35;;;;;;;;;;5102378;28;20446;-69
2022/04/17 09:39:12;;;;;;;22.92;13.27;;;;;;;;;;5100195;28;20027;-73
2022/04/17 09:41:51;;;;;;;23.98;13.65;;;;;;;;;;5100976;28;20051;-69
2022/04/17 09:44:32;;;;;;;22.23;13.25;;;;;;;;;;5100995;28;20311;-72
2022/04/17 09:46:58;;;;;;;21.10;14.48;;;;;;;;;;5100684;28;20020;-69
2022/04/17 09:49:24;;;;;;;33.10;21.70;;;;;;;;;;5100894;28;21087;-71
2022/04/17 09:52:04;;;;;;;23.77;15.93;;;;;;;;;;5101379;28;20023;-70
2022/04/17 09:54:29;;;;;;;29.67;19.80;;;;;;;;;;5082773;28;20042;-71
2022/04/17 09:56:55;;;;;;;28.70;17.17;;;;;;;;;;5100113;28;20030;-69
2022/04/17 09:59:21;;;;;;;35.40;21.42;;;;;;;;;;5100229;28;20063;-69
2022/04/17 10:01:50;;;;;;;29.17;16.33;;;;;;;;;;5090213;28;20455;-71
2022/04/17 10:04:17;;;;;;;28.38;17.60;;;;;;;;;;5093621;28;20276;-69
2022/04/17 10:06:43;;;;;;;26.20;16.77;;;;;;;;;;5086892;28;20062;-73
2022/04/17 10:09:08;;;;;;;29.83;17.65;;;;;;;;;;5094309;28;20480;-75
2022/04/17 10:11:34;;;;;;;35.35;20.67;;;;;;;;;;5082149;28;20514;-70
2022/04/17 10:14:01;;;;;;;27.35;15.88;;;;;;;;;;5099818;28;20039;-70
2022/04/17 10:16:28;;;;;;;67.28;32.78;;;;;;;;;;5089155;28;20020;-72
2022/04/17 10:18:54;;;;;;;47.97;25.48;;;;;;;;;;5095116;28;20351;-70
2022/04/17 10:21:22;;;;;;;35.67;20.48;;;;;;;;;;5092997;28;20027;-69
2022/04/17 10:23:50;;;;;;;34.97;20.88;;;;;;;;;;5100072;28;20035;-69
2022/04/17 10:26:17;;;;;;;34.70;22.40;;;;;;;;;;5098781;28;20019;-69
2022/04/17 10:28:48;;;;;;;36.03;21.40;;;;;;;;;;5099668;28;20031;-74
2022/04/17 10:31:19;;;;;;;28.60;16.35;;;;;;;;;;5069284;28;20060;-70
2022/04/17 10:33:59;;;;;;;18.58;11.57;;;;;;;;;;5086624;28;20449;-74
2022/04/17 10:36:37;;;;;;;26.52;17.83;;;;;;;;;;5086343;28;20035;-70
2022/04/17 10:39:21;;;;;;;27.05;16.77;;;;;;;;;;5087367;28;20457;-72
2022/04/17 10:41:46;;;;;;;23.27;15.05;;;;;;;;;;5089926;28;20020;-68
2022/04/17 10:44:12;;;;;;;27.63;17.92;;;;;;;;;;5093935;28;20039;-68
2022/04/17 10:46:44;;;;;;;22.25;15.70;;;;;;;;;;5077668;28;20350;-71
2022/04/17 10:49:09;;;;;;;29.13;17.30;;;;;;;;;;5088788;28;20019;-71
2022/04/17 10:51:35;;;;;;;35.17;22.50;;;;;;;;;;5087047;28;20367;-71
2022/04/17 10:54:03;;;;;;;23.77;16.17;;;;;;;;;;5099719;28;20477;-69
2022/04/17 10:56:29;;;;;;;44.05;28.52;;;;;;;;;;5099146;28;20025;-71
2022/04/17 10:58:55;;;;;;;36.78;22.25;;;;;;;;;;5099935;28;20081;-70
2022/04/17 11:01:40;;;;;;;34.08;23.40;;;;;;;;;;5091202;28;20129;-71
2022/04/17 11:04:18;;;;;;;34.63;21.45;;;;;;;;;;5098345;28;20035;-71
2022/04/17 11:06:44;;;;;;;26.23;17.90;;;;;;;;;;5098642;28;20019;-73
2022/04/17 11:09:10;;;;;;;23.73;16.20;;;;;;;;;;5100270;28;20034;-76
2022/04/17 11:11:39;;;;;;;23.67;17.23;;;;;;;;;;5099992;28;20019;-71
2022/04/17 11:14:08;;;;;;;38.27;26.17;;;;;;;;;;5100419;28;20055;-71
2022/04/17 11:16:57;;;;;;;27.08;18.25;;;;;;;;;;5086543;28;20145;-70
2022/04/17 11:19:23;;;;;;;22.55;15.48;;;;;;;;;;5074459;28;20043;-72
2022/04/17 11:21:53;;;;;;;16.83;12.15;;;;;;;;;;5085584;28;20030;-72
2022/04/17 11:24:22;;;;;;;15.35;12.23;;;;;;;;;;5085633;28;20059;-70
2022/04/17 11:26:53;;;;;;;14.40;11.87;;;;;;;;;;5099535;28;20031;-70
2022/04/17 11:29:37;;;;;;;14.50;9.65;;;;;;;;;;5099943;28;20019;-71
2022/04/17 11:32:23;;;;;;;10.18;9.00;;;;;;;;;;5069021;28;20039;-70
2022/04/17 11:34:55;;;;;;;14.82;11.18;;;;;;;;;;5081187;28;20042;-71
2022/04/17 11:37:24;;;;;;;18.05;13.80;;;;;;;;;;5088477;28;20022;-71
2022/04/17 11:39:49;;;;;;;15.32;12.70;;;;;;;;;;5089112;28;20024;-75
2022/04/17 11:42:15;;;;;;;15.02;11.40;;;;;;;;;;5086412;28;20035;-71
2022/04/17 11:44:43;;;;;;;12.75;10.15;;;;;;;;;;5090319;28;20055;-73
2022/04/17 11:47:19;;;;;;;12.45;11.00;;;;;;;;;;5099812;28;20098;-71
2022/04/17 11:49:45;;;;;;;16.83;13.63;;;;;;;;;;5085577;28;20497;-69
2022/04/17 11:52:15;;;;;;;18.08;15.00;;;;;;;;;;5087339;28;20427;-75
2022/04/17 11:54:40;;;;;;;17.10;15.25;;;;;;;;;;5091705;28;20403;-70
2022/04/17 11:57:06;;;;;;;23.73;18.52;;;;;;;;;;5091459;28;20066;-71
2022/04/17 11:59:50;;;;;;;30.98;21.05;;;;;;;;;;5100924;28;20051;-73
2022/04/17 12:02:16;;;;;;;38.88;26.30;;;;;;;;;;5095382;28;20030;-72
2022/04/17 12:04:43;;;;;;;39.53;26.90;;;;;;;;;;5092774;28;20308;-72
2022/04/17 12:07:11;;;;;;;35.28;24.58;;;;;;;;;;5089423;28;20402;-70
2022/04/17 12:09:38;;;;;;;70.32;50.15;;;;;;;;;;5090886;28;20023;-72
2022/04/17 12:12:09;;;;;;;33.97;25.02;;;;;;;;;;5102454;28;20470;-71
2022/04/17 12:14:34;;;;;;;23.08;19.15;;;;;;;;;;5101980;28;20058;-71
2022/04/17 12:16:59;;;;;;;22.27;18.85;;;;;;;;;;5094923;28;20112;-70
2022/04/17 12:19:25;;;;;;;18.02;15.35;;;;;;;;;;5089258;28;20057;-70
2022/04/17 12:21:50;;;;;;;24.73;19.38;;;;;;;;;;5090372;28;20020;-73
2022/04/17 12:24:16;;;;;;;25.63;20.58;;;;;;;;;;5089260;28;20036;-71
2022/04/17 12:26:41;;;;;;;19.23;15.88;;;;;;;;;;5092388;28;20791;-72
2022/04/17 12:29:07;;;;;;;27.13;21.58;;;;;;;;;;5102898;28;20049;-71
2022/04/17 12:31:36;;;;;;;31.55;24.00;;;;;;;;;;5097057;28;20032;-71
2022/04/17 12:34:16;;;;;;;34.30;26.48;;;;;;;;;;5091875;28;20104;-70
2022/04/17 12:36:42;;;;;;;39.05;25.40;;;;;;;;;;5090267;28;20031;-71
2022/04/17 12:39:08;;;;;;;50.25;31.20;;;;;;;;;;5089031;28;20132;-71
2022/04/17 12:41:46;;;;;;;36.90;24.23;;;;;;;;;;5088538;28;20057;-72
2022/04/17 12:44:11;;;;;;;30.80;20.98;;;;;;;;;;5086234;28;20040;-71
2022/04/17 12:46:42;;;;;;;42.72;25.60;;;;;;;;;;5087215;28;20039;-72
2022/04/17 12:49:25;;;;;;;40.33;22.40;;;;;;;;;;5089698;28;20049;-71
2022/04/17 12:51:57;;;;;;;73.55;40.15;;;;;;;;;;5088482;28;20039;-73
2022/04/17 12:54:22;;;;;;;31.52;21.20;;;;;;;;;;5088835;28;20054;-71
2022/04/17 12:56:48;;;;;;;25.55;20.45;;;;;;;;;;5087012;28;20099;-70
2022/04/17 12:59:19;;;;;;;21.88;17.77;;;;;;;;;;5086396;28;20143;-70
2022/04/17 13:01:47;;;;;;;22.25;16.25;;;;;;;;;;5087980;28;20028;-72
2022/04/17 13:04:20;;;;;;;28.70;20.35;;;;;;;;;;5087544;28;20262;-71
2022/04/17 13:06:46;;;;;;;17.95;13.27;;;;;;;;;;5088781;28;20161;-70
2022/04/17 13:09:13;;;;;;;19.42;14.10;;;;;;;;;;5086933;28;20020;-69
2022/04/17 13:11:43;;;;;;;13.55;11.07;;;;;;;;;;5088292;28;20086;-70
2022/04/17 13:14:08;;;;;;;;;;;;;;;;;;5088505;28;20496;-69
2022/04/17 13:16:34;;;;;;;28.15;19.17;;;;;;;;;;5092110;28;20017;-70
2022/04/17 13:18:59;;;;;;;23.70;14.45;;;;;;;;;;5088275;28;20121;-71
2022/04/17 13:21:25;;;;;;;20.15;14.48;;;;;;;;;;5093299;28;20346;-70
2022/04/17 13:23:51;;;;;;;20.30;12.95;;;;;;;;;;5088601;28;20083;-68
2022/04/17 13:26:17;;;;;;;14.57;11.27;;;;;;;;;;5087797;28;20031;-69
2022/04/17 13:28:42;;;;;;;27.23;17.15;;;;;;;;;;5087593;28;20091;-70
2022/04/17 13:31:07;;;;;;;37.30;21.00;;;;;;;;;;5087057;28;20028;-69
2022/04/17 13:33:33;;;;;;;16.25;10.93;;;;;;;;;;5087404;28;20024;-70
2022/04/17 13:35:58;;;;;;;9.35;7.75;;;;;;;;;;5087675;28;20027;-69
2022/04/17 13:38:24;;;;;;;27.17;18.85;;;;;;;;;;5087984;28;20024;-69
2022/04/17 13:40:50;;;;;;;12.85;10.18;;;;;;;;;;5088835;28;20584;-69
2022/04/17 13:43:15;;;;;;;12.65;10.13;;;;;;;;;;5085771;28;20102;-69
2022/04/17 13:45:41;;;;;;;14.30;12.02;;;;;;;;;;5068732;28;20150;-69
2022/04/17 13:48:07;;;;;;;17.50;14.10;;;;;;;;;;5095587;28;20066;-69
2022/04/17 13:50:35;;;;;;;13.90;10.82;;;;;;;;;;5093842;28;20034;-71
2022/04/17 13:53:00;;;;;;;13.90;11.57;;;;;;;;;;5086943;28;20031;-70
2022/04/17 13:55:28;;;;;;;19.70;14.30;;;;;;;;;;5087707;28;20032;-71
2022/04/17 13:57:53;;;;;;;20.73;14.60;;;;;;;;;;5087808;28;20019;-72
2022/04/17 14:00:19;;;;;;;13.02;11.32;;;;;;;;;;5087094;28;20669;-71
2022/04/17 14:02:44;;;;;;;11.38;8.75;;;;;;;;;;5087059;28;20027;-70
2022/04/17 14:05:09;;;;;;;16.20;11.80;;;;;;;;;;5094125;28;20080;-72
2022/04/17 14:07:37;;;;;;;20.52;12.38;;;;;;;;;;5100791;28;20062;-70
2022/04/17 14:10:02;;;;;;;18.48;12.60;;;;;;;;;;5099890;28;20439;-73
2022/04/17 14:12:28;;;;;;;13.50;10.35;;;;;;;;;;5091481;28;20075;-72
2022/04/17 14:14:56;;;;;;;20.20;14.52;;;;;;;;;;5087221;28;24502;-72
2022/04/17 14:17:21;;;;;;;20.48;12.93;;;;;;;;;;5092931;28;20134;-70
2022/04/17 14:19:47;;;;;;;24.10;14.32;;;;;;;;;;5100031;28;20407;-72
2022/04/17 14:22:12;;;;;;;13.38;9.48;;;;;;;;;;5081523;28;20502;-70
2022/04/17 14:24:38;;;;;;;11.38;7.85;;;;;;;;;;5099241;28;20031;-70
2022/04/17 14:27:03;;;;;;;5.60;5.05;;;;;;;;;;5096827;28;20349;-72
2022/04/17 14:29:29;;;;;;;23.15;14.10;;;;;;;;;;5087315;28;20370;-74